Search for airport 
image banner adimage banner adimage banner ad
image banner ad

95CA - Bonel

Located in Whitley Garden, United States

ICAO - 95CA, IATA -

Data provided by Airmate  

General information

Coordinates: N35°40'9" W120°32'55"
Elevation is 1030 feet MSL.
Magnetic variation is 15° East
View others Airports in California

Operational data

Special qualification required
Current time UTC:
Current local time:
Weather at : KPRB - Paso Robles Muni ( 7 km )
METAR: KPRB 212253Z AUTO 21012KT 10SM CLR 34/09 A3003 RMK AO2 SLP161 T03440089
TAF: KPRB 211731Z 2118/2218 00000KT P6SM SKC FM212000 21009KT P6SM SKC FM220200 29008KT P6SM SKC FM220600 VRB03KT P6SM SKC FM221200 00000KT P6SM SKC
View NOTAMs / SUP AIP / TFR affecting this airport [VIEW]
Communications frequencies: [VIEW]

Runways:

RWY identifierQFULength (ft)Width (ft)SurfaceLDA (ft)
17200050GRASS
35200050GRASS

Airport contact information

Address: Whitley Garden United States

Satellite view of 95CA